createdAt,value
2018-06-08T00:01:13.651Z,100964.39
2018-06-08T00:03:42.329Z,100963.17
2018-06-08T00:06:11.015Z,100964.50
2018-06-08T00:08:39.576Z,100960.86
2018-06-08T00:11:08.266Z,100959.52
2018-06-08T00:13:36.967Z,100954.53
2018-06-08T00:16:05.562Z,100963.17
2018-06-08T00:18:34.236Z,100958.42
2018-06-08T00:21:03.551Z,100941.17
2018-06-08T00:23:32.178Z,100958.64
2018-06-08T00:26:00.804Z,100956.45
2018-06-08T00:28:29.489Z,100955.23
2018-06-08T00:30:58.110Z,100949.17
2018-06-08T00:33:26.738Z,100953.17
2018-06-08T00:35:55.443Z,100953.53
2018-06-08T00:38:23.985Z,100944.55
2018-06-08T00:40:53.427Z,100946.50
2018-06-08T00:43:22.700Z,100949.53
2018-06-08T00:45:51.270Z,100943.45
2018-06-08T00:48:19.893Z,100942.86
2018-06-08T00:50:48.475Z,100951.84
2018-06-08T00:53:17.138Z,100952.78
2018-06-08T00:55:45.815Z,100952.42
2018-06-08T00:58:14.429Z,100957.41
2018-06-08T01:00:43.114Z,100960.30
2018-06-08T01:03:11.634Z,100957.35
2018-06-08T01:05:40.284Z,100955.77
2018-06-08T01:08:08.966Z,100965.30
2018-06-08T01:10:37.549Z,100969.88
2018-06-08T01:13:06.233Z,100960.30
2018-06-08T01:15:35.366Z,100964.88
2018-06-08T01:18:04.075Z,100966.36
2018-06-08T01:20:33.539Z,100960.63
2018-06-08T01:23:02.205Z,100957.97
2018-06-08T01:25:30.722Z,100954.47
2018-06-08T01:27:59.330Z,100955.52
2018-06-08T01:30:28.001Z,100962.19
2018-06-08T01:32:56.534Z,100958.19
2018-06-08T01:35:26.165Z,100945.52
2018-06-08T01:37:55.355Z,100958.19
2018-06-08T01:40:24.514Z,100956.38
2018-06-08T01:42:53.074Z,100962.69
2018-06-08T01:45:21.633Z,100964.86
2018-06-08T01:47:50.284Z,100966.69
2018-06-08T01:50:18.802Z,100958.80
2018-06-08T01:52:47.494Z,100971.74
2018-06-08T01:55:16.713Z,100969.08
2018-06-08T01:57:45.332Z,100974.05
2018-06-08T02:00:14.021Z,100975.97
2018-06-08T02:02:42.600Z,100976.80
2018-06-08T02:05:11.287Z,100974.58
2018-06-08T02:07:39.905Z,100978.62
2018-06-08T02:10:08.555Z,100975.13
2018-06-08T02:12:37.154Z,100981.28
2018-06-08T02:15:05.824Z,100983.95
2018-06-08T02:17:34.727Z,100981.28
2018-06-08T02:20:03.398Z,100974.26
2018-06-08T02:22:32.099Z,100980.56
2018-06-08T02:25:00.746Z,100978.01
2018-06-08T02:27:29.454Z,100978.84
2018-06-08T02:29:58.343Z,100982.83
2018-06-08T02:32:27.028Z,100985.14
2018-06-08T02:34:55.714Z,100992.38
2018-06-08T02:37:24.497Z,100989.32
2018-06-08T02:39:53.084Z,100985.72
2018-06-08T02:42:21.920Z,100983.52
2018-06-08T02:44:50.502Z,100981.12
2018-06-08T02:47:19.058Z,100988.15
2018-06-08T02:49:47.728Z,100977.67
2018-06-08T02:52:16.307Z,100976.28
2018-06-08T02:54:44.893Z,100968.83
2018-06-08T02:57:13.521Z,100970.20
2018-06-08T02:59:42.157Z,100966.63
2018-06-08T03:02:10.843Z,100970.77
2018-06-08T03:04:39.455Z,100967.28
2018-06-08T03:07:08.043Z,100968.39
2018-06-08T03:09:36.919Z,100968.56
2018-06-08T03:12:05.600Z,100968.06
2018-06-08T03:14:34.269Z,100972.34
2018-06-08T03:17:02.954Z,100968.48
2018-06-08T03:19:32.394Z,100975.30
2018-06-08T03:22:01.610Z,100963.83
2018-06-08T03:24:30.278Z,100963.97
2018-06-08T03:27:00.154Z,100966.52
2018-06-08T03:29:28.750Z,100970.36
2018-06-08T03:31:57.335Z,100979.83
2018-06-08T03:34:25.889Z,100975.86
2018-06-08T03:36:54.433Z,100976.53
2018-06-08T03:39:23.070Z,100974.00
2018-06-08T03:41:51.702Z,100975.86
2018-06-08T03:44:20.283Z,100973.67
2018-06-08T03:46:48.920Z,100967.89
2018-06-08T03:49:17.504Z,100971.83
2018-06-08T03:51:46.035Z,100966.98
2018-06-08T03:54:14.538Z,100960.31
2018-06-08T03:56:43.243Z,100957.19
2018-06-08T03:59:11.936Z,100969.96
2018-06-08T04:01:40.623Z,100967.69
2018-06-08T04:04:09.215Z,100966.25
2018-06-08T04:06:37.790Z,100971.98
2018-06-08T04:09:08.354Z,100962.53
2018-06-08T04:11:37.179Z,100965.59
2018-06-08T04:14:05.889Z,100967.55
2018-06-08T04:16:34.473Z,100972.45
2018-06-08T04:19:03.095Z,100966.05
2018-06-08T04:21:31.722Z,100969.69
2018-06-08T04:24:00.324Z,100966.05
2018-06-08T04:26:29.014Z,100972.36
2018-06-08T04:28:57.591Z,100975.17
2018-06-08T04:31:26.767Z,100971.64
2018-06-08T04:33:55.371Z,100966.50
2018-06-08T04:36:23.870Z,100966.50
2018-06-08T04:38:52.930Z,100969.16
2018-06-08T04:41:21.470Z,100967.96
2018-06-08T04:43:50.114Z,100970.97
2018-06-08T04:46:18.699Z,100963.78
2018-06-08T04:48:47.802Z,100961.42
2018-06-08T04:51:16.372Z,100960.44
2018-06-08T04:53:44.966Z,100959.06
2018-06-08T04:56:13.745Z,100960.84
2018-06-08T04:58:42.859Z,100965.09
2018-06-08T05:01:11.527Z,100957.49
2018-06-08T05:03:40.211Z,100960.64
2018-06-08T05:06:08.797Z,100959.14
2018-06-08T05:08:37.481Z,100963.38
2018-06-08T05:11:06.118Z,100967.16
2018-06-08T05:13:34.745Z,100968.06
2018-06-08T05:16:03.363Z,100966.20
2018-06-08T05:18:32.013Z,100966.88
2018-06-08T05:21:00.654Z,100977.64
2018-06-08T05:23:29.283Z,100973.47
2018-06-08T05:25:58.935Z,100972.94
2018-06-08T05:28:27.680Z,100974.70
2018-06-08T05:30:56.346Z,100975.64
2018-06-08T05:33:25.084Z,100965.11
2018-06-08T05:35:53.734Z,100967.19
2018-06-08T05:38:22.350Z,100967.48
2018-06-08T05:40:50.851Z,100969.83
2018-06-08T05:43:19.481Z,100977.58
2018-06-08T05:45:48.092Z,100980.68
2018-06-08T05:48:16.711Z,100978.17
2018-06-08T05:50:45.433Z,100980.38
2018-06-08T05:53:14.630Z,100981.60
2018-06-08T05:55:43.215Z,100970.86
2018-06-08T05:58:11.718Z,100982.31
2018-06-08T06:00:40.380Z,100976.87
2018-06-08T06:03:09.077Z,100972.70
2018-06-08T06:05:37.957Z,100970.59
2018-06-08T06:08:07.464Z,100973.62
2018-06-08T06:10:36.094Z,100974.80
2018-06-08T06:13:04.731Z,100978.95
2018-06-08T06:15:33.338Z,100980.08
2018-06-08T06:18:02.013Z,100975.56
2018-06-08T06:20:30.684Z,100980.09
2018-06-08T06:22:59.366Z,100977.16
2018-06-08T06:25:28.008Z,100980.63
2018-06-08T06:27:56.536Z,100978.27
2018-06-08T06:30:25.212Z,100982.69
2018-06-08T06:32:53.752Z,100983.67
2018-06-08T06:35:22.315Z,100982.55
2018-06-08T06:37:51.482Z,100986.45
2018-06-08T06:40:20.674Z,100981.26
2018-06-08T06:42:49.362Z,100984.07
2018-06-08T06:45:18.034Z,100990.41
2018-06-08T06:47:46.561Z,100993.63
2018-06-08T06:50:15.223Z,100993.75
2018-06-08T06:52:43.896Z,100997.53
2018-06-08T06:55:12.544Z,100996.55
2018-06-08T06:57:41.208Z,100996.86
2018-06-08T07:00:09.811Z,100997.53
2018-06-08T07:02:38.364Z,100997.65
2018-06-08T07:05:07.166Z,101000.45
2018-06-08T07:07:35.654Z,101001.02
2018-06-08T07:10:04.359Z,101006.44
2018-06-08T07:12:32.970Z,100991.28
2018-06-08T07:15:01.554Z,100992.36
2018-06-08T07:17:30.094Z,101004.70
2018-06-08T07:19:58.723Z,101003.55
2018-06-08T07:22:27.354Z,101003.95
2018-06-08T07:24:55.939Z,101009.03
2018-06-08T07:27:24.571Z,101013.37
2018-06-08T07:29:53.153Z,101011.96
2018-06-08T07:32:21.804Z,101015.97
2018-06-08T07:34:50.418Z,101016.61
2018-06-08T07:37:19.024Z,100787.93
2018-06-08T07:39:48.507Z,101018.33
2018-06-08T07:42:17.602Z,101020.56
2018-06-08T07:44:47.003Z,101011.33
2018-06-08T07:47:16.303Z,101015.50
2018-06-08T07:49:44.989Z,101016.57
2018-06-08T07:52:13.653Z,101013.27
2018-06-08T07:54:42.259Z,101012.06
2018-06-08T07:57:10.833Z,101014.88
2018-06-08T07:59:39.752Z,101016.00
2018-06-08T08:02:08.520Z,101015.35
2018-06-08T08:04:37.170Z,101016.67
2018-06-08T08:07:05.888Z,101015.61
2018-06-08T08:09:34.471Z,101017.97
2018-06-08T08:12:03.874Z,101023.70
2018-06-08T08:14:32.455Z,101018.80
2018-06-08T08:17:01.141Z,101028.08
2018-06-08T08:19:29.832Z,101027.69
2018-06-08T08:21:58.942Z,101031.48
2018-06-08T08:24:27.540Z,101030.19
2018-06-08T08:26:56.110Z,101029.38
2018-06-08T08:29:24.776Z,101023.13
2018-06-08T08:31:53.460Z,101029.94
2018-06-08T08:34:22.096Z,101031.80
2018-06-08T08:36:50.654Z,101033.37
2018-06-08T08:39:20.582Z,101036.08
2018-06-08T08:41:49.225Z,101025.62
2018-06-08T08:44:17.808Z,101028.06
2018-06-08T08:46:46.491Z,101024.43
2018-06-08T08:49:15.187Z,101029.84
2018-06-08T08:51:43.869Z,101028.88
2018-06-08T08:54:12.832Z,101026.67
2018-06-08T08:56:41.440Z,101031.73
2018-06-08T08:59:10.946Z,101027.29
2018-06-08T09:01:39.552Z,101025.00
2018-06-08T09:04:08.208Z,101027.98
2018-06-08T09:06:36.897Z,101020.44
2018-06-08T09:09:07.436Z,101024.81
2018-06-08T09:11:36.105Z,101022.01
2018-06-08T09:14:04.795Z,101026.44
2018-06-08T09:16:33.479Z,101042.96
2018-06-08T09:19:02.107Z,101033.27
2018-06-08T09:21:30.703Z,101039.22
2018-06-08T09:23:59.258Z,101035.50
2018-06-08T09:26:27.912Z,101036.36
2018-06-08T09:28:56.574Z,101041.89
2018-06-08T09:31:25.714Z,101039.88
2018-06-08T09:33:54.377Z,101039.88
2018-06-08T09:36:23.450Z,101038.20
2018-06-08T09:38:52.014Z,101042.74
2018-06-08T09:41:20.741Z,101040.91
2018-06-08T09:43:49.487Z,101040.53
2018-06-08T09:46:18.115Z,101042.74
2018-06-08T09:48:46.746Z,101046.46
2018-06-08T09:51:15.379Z,101046.94
2018-06-08T09:53:44.067Z,101050.27
2018-06-08T09:56:12.646Z,101056.56
2018-06-08T09:58:41.262Z,100996.50
2018-06-08T10:01:09.862Z,101046.86
2018-06-08T10:03:38.451Z,101045.03
2018-06-08T10:06:07.041Z,101052.83
2018-06-08T10:08:35.663Z,101051.48
2018-06-08T10:11:04.350Z,101043.22
2018-06-08T10:13:33.038Z,101044.39
2018-06-08T10:16:01.617Z,101049.73
2018-06-08T10:18:30.251Z,101047.40
2018-06-08T10:20:58.886Z,101046.39
2018-06-08T10:23:27.571Z,101039.00
2018-06-08T10:25:56.359Z,101044.12
2018-06-08T10:28:25.084Z,101042.08
2018-06-08T10:30:53.594Z,101035.03
2018-06-08T10:33:22.155Z,101037.09
2018-06-08T10:35:51.566Z,101034.34
2018-06-08T10:38:20.043Z,101026.23
2018-06-08T10:40:48.727Z,101035.20
2018-06-08T10:43:17.257Z,101036.18
2018-06-08T10:45:45.756Z,101040.39
2018-06-08T10:48:15.067Z,101035.64
2018-06-08T10:50:43.663Z,101039.36
2018-06-08T10:53:12.305Z,101039.38
2018-06-08T10:55:41.709Z,101030.98
2018-06-08T10:58:10.344Z,101030.20
2018-06-08T11:00:38.976Z,101032.05
2018-06-08T11:03:07.525Z,101031.06
2018-06-08T11:05:36.091Z,101033.44
2018-06-08T11:08:04.697Z,101031.27
2018-06-08T11:10:33.210Z,101024.80
2018-06-08T11:13:02.606Z,101028.36
2018-06-08T11:15:31.287Z,101034.13
2018-06-08T11:17:59.774Z,101032.45
2018-06-08T11:20:28.458Z,101029.08
2018-06-08T11:22:57.139Z,101028.72
2018-06-08T11:25:26.450Z,101021.27
2018-06-08T11:27:55.086Z,101027.37
2018-06-08T11:30:23.661Z,101031.09
2018-06-08T11:32:52.976Z,101023.64
2018-06-08T11:35:21.698Z,101026.68
2018-06-08T11:37:50.306Z,101024.69
2018-06-08T11:40:18.973Z,101022.36
2018-06-08T11:42:48.367Z,101017.30
2018-06-08T11:45:17.052Z,101014.27
2018-06-08T11:47:45.736Z,101024.77
2018-06-08T11:50:14.526Z,101021.03
2018-06-08T11:52:43.876Z,101012.91
2018-06-08T11:55:12.975Z,101011.92
2018-06-08T11:57:42.342Z,101015.63
2018-06-08T12:00:11.039Z,101016.99
2018-06-08T12:02:39.535Z,101008.87
2018-06-08T12:05:08.137Z,101009.20
2018-06-08T12:07:36.756Z,101015.62
2018-06-08T12:10:05.755Z,101015.45
2018-06-08T12:12:34.350Z,101015.62
2018-06-08T12:15:04.488Z,101018.66
2018-06-08T12:17:33.070Z,101011.06
2018-06-08T12:20:02.474Z,101011.19
2018-06-08T12:22:31.445Z,101011.34
2018-06-08T12:25:00.075Z,101010.22
2018-06-08T12:27:28.695Z,101004.61
2018-06-08T12:29:57.846Z,101005.11
2018-06-08T12:32:27.295Z,101008.81
2018-06-08T12:34:56.406Z,101005.11
2018-06-08T12:37:24.957Z,101009.16
2018-06-08T12:39:53.612Z,101007.81
2018-06-08T12:42:22.774Z,101002.23
2018-06-08T12:44:52.314Z,101009.17
2018-06-08T12:47:20.862Z,101002.74
2018-06-08T12:49:49.423Z,100999.67
2018-06-08T12:52:18.070Z,101002.06
2018-06-08T12:54:46.694Z,101004.06
2018-06-08T12:57:15.827Z,100999.99
2018-06-08T12:59:44.398Z,100996.95
2018-06-08T13:02:13.671Z,101003.36
2018-06-08T13:04:42.298Z,101004.02
2018-06-08T13:07:10.898Z,101004.62
2018-06-08T13:09:39.520Z,101001.91
2018-06-08T13:12:08.820Z,100994.77
2018-06-08T13:14:37.344Z,100981.61
2018-06-08T13:17:07.061Z,100992.80
2018-06-08T13:19:36.290Z,100990.77
2018-06-08T13:22:04.943Z,100994.11
2018-06-08T13:24:33.706Z,100993.25
2018-06-08T13:27:02.308Z,100998.86
2018-06-08T13:29:30.948Z,100992.30
2018-06-08T13:31:59.588Z,100991.80
2018-06-08T13:34:28.156Z,100996.52
2018-06-08T13:36:57.003Z,100990.11
2018-06-08T13:39:25.985Z,100989.41
2018-06-08T13:41:55.023Z,100984.15
2018-06-08T13:44:23.610Z,100986.69
2018-06-08T13:46:52.260Z,100968.39
2018-06-08T13:49:20.935Z,100972.58
2018-06-08T13:51:49.558Z,100965.27
2018-06-08T13:54:18.166Z,100968.63
2018-06-08T13:56:46.789Z,100958.84
2018-06-08T13:59:15.396Z,100957.46
2018-06-08T14:01:44.350Z,100963.27
2018-06-08T14:04:13.218Z,100955.96
2018-06-08T14:06:41.887Z,100962.56
2018-06-08T14:09:10.448Z,100959.49
2018-06-08T14:11:38.955Z,100947.91
2018-06-08T14:14:07.492Z,100948.05
2018-06-08T14:16:36.092Z,100941.72
2018-06-08T14:19:04.908Z,100940.05
2018-06-08T14:21:33.482Z,100948.82
2018-06-08T14:24:02.074Z,100950.21
2018-06-08T14:26:30.652Z,100947.64
2018-06-08T14:28:59.190Z,100951.13
2018-06-08T14:31:27.873Z,100946.56
2018-06-08T14:33:56.561Z,100939.69
2018-06-08T14:36:25.961Z,100834.02
2018-06-08T14:38:54.695Z,100939.73
2018-06-08T14:41:23.342Z,100934.88
2018-06-08T14:43:52.071Z,100929.19
2018-06-08T14:46:21.214Z,100933.91
2018-06-08T14:48:50.002Z,100925.36
2018-06-08T14:51:18.592Z,100926.34
2018-06-08T14:53:47.271Z,100922.70
2018-06-08T14:56:16.675Z,100919.69
2018-06-08T14:58:45.367Z,100922.17
2018-06-08T15:01:13.922Z,100918.65
2018-06-08T15:03:43.191Z,100920.92
2018-06-08T15:06:11.719Z,100910.70
2018-06-08T15:08:40.408Z,100922.41
2018-06-08T15:11:09.096Z,100912.47
2018-06-08T15:13:37.586Z,100905.25
2018-06-08T15:16:06.315Z,100905.14
2018-06-08T15:18:34.902Z,100904.91
2018-06-08T15:21:03.480Z,100904.86
2018-06-08T15:23:32.118Z,100902.87
2018-06-08T15:26:00.719Z,100900.79
2018-06-08T15:28:29.222Z,100902.28
2018-06-08T15:30:57.826Z,100903.09
2018-06-08T15:33:26.443Z,100904.01
2018-06-08T15:35:55.067Z,100906.73
2018-06-08T15:38:23.711Z,100903.05
2018-06-08T15:40:52.396Z,100905.44
2018-06-08T15:43:21.081Z,100906.98
2018-06-08T15:45:49.814Z,100906.19
2018-06-08T15:48:19.427Z,100912.60
2018-06-08T15:50:48.058Z,100903.57
2018-06-08T15:53:16.683Z,100906.92
2018-06-08T15:55:45.247Z,100905.00
2018-06-08T15:58:14.362Z,100903.57
2018-06-08T16:00:42.905Z,100899.33
2018-06-08T16:03:11.435Z,100905.17
2018-06-08T16:05:40.887Z,100899.69
2018-06-08T16:08:09.674Z,100906.42
2018-06-08T16:10:38.208Z,100904.01
2018-06-08T16:13:06.888Z,100901.00
2018-06-08T16:15:35.482Z,100899.21
2018-06-08T16:18:04.106Z,100896.42
2018-06-08T16:20:32.591Z,100896.67
2018-06-08T16:23:01.122Z,100905.36
2018-06-08T16:25:30.328Z,100902.66
2018-06-08T16:27:58.870Z,100899.25
2018-06-08T16:30:27.490Z,100900.70
2018-06-08T16:32:56.232Z,100900.66
2018-06-08T16:35:24.823Z,100897.72
2018-06-08T16:37:53.485Z,100899.52
2018-06-08T16:40:22.991Z,100895.27
2018-06-08T16:42:51.574Z,100884.35
2018-06-08T16:45:20.240Z,100889.95
2018-06-08T16:47:49.275Z,100889.05
2018-06-08T16:50:17.945Z,100886.19
2018-06-08T16:52:46.519Z,100888.27
2018-06-08T16:55:15.110Z,100881.66
2018-06-08T16:57:43.775Z,100885.39
2018-06-08T17:00:12.338Z,100880.28
2018-06-08T17:02:40.956Z,100880.65
2018-06-08T17:05:09.534Z,100888.16
2018-06-08T17:07:38.938Z,100878.39
2018-06-08T17:10:07.624Z,100877.72
2018-06-08T17:12:36.285Z,100877.58
2018-06-08T17:15:04.995Z,100884.22
2018-06-08T17:17:33.598Z,100887.61
2018-06-08T17:20:02.160Z,100883.27
2018-06-08T17:22:30.844Z,100885.77
2018-06-08T17:24:59.474Z,100883.95
2018-06-08T17:27:28.023Z,100888.59
2018-06-08T17:29:56.563Z,100883.34
2018-06-08T17:32:25.711Z,100886.66
2018-06-08T17:34:55.093Z,100888.33
2018-06-08T17:37:23.742Z,100894.58
2018-06-08T17:39:52.382Z,100891.95
2018-06-08T17:42:20.942Z,100901.11
2018-06-08T17:44:49.632Z,100895.70
2018-06-08T17:47:18.215Z,100895.69
2018-06-08T17:49:46.738Z,100898.75
2018-06-08T17:52:15.838Z,100901.35
2018-06-08T17:54:44.505Z,100895.60
2018-06-08T17:57:13.271Z,100899.53
2018-06-08T17:59:42.000Z,100900.19
2018-06-08T18:02:10.571Z,100909.36
2018-06-08T18:04:39.142Z,100910.38
2018-06-08T18:07:07.790Z,100913.11
2018-06-08T18:09:36.321Z,100906.38
2018-06-08T18:12:04.920Z,100902.30
2018-06-08T18:14:33.455Z,100903.66
2018-06-08T18:17:02.025Z,100898.58
2018-06-08T18:19:30.607Z,100904.84
2018-06-08T18:21:59.211Z,100904.34
2018-06-08T18:24:27.814Z,100907.04
2018-06-08T18:26:57.075Z,100906.36
2018-06-08T18:29:25.664Z,100899.59
2018-06-08T18:31:54.282Z,100903.12
2018-06-08T18:34:22.923Z,100895.48
2018-06-08T18:36:52.429Z,100900.20
2018-06-08T18:39:21.114Z,100899.36
2018-06-08T18:41:49.801Z,100894.45
2018-06-08T18:44:18.333Z,100902.02
2018-06-08T18:46:47.405Z,100902.47
2018-06-08T18:49:16.218Z,100897.55
2018-06-08T18:51:44.952Z,100903.38
2018-06-08T18:54:13.550Z,100899.30
2018-06-08T18:56:42.215Z,100903.83
2018-06-08T18:59:10.904Z,100902.96
2018-06-08T19:01:39.588Z,100909.66
2018-06-08T19:04:08.208Z,100911.31
2018-06-08T19:06:36.832Z,100903.48
2018-06-08T19:09:08.338Z,100901.42
2018-06-08T19:11:37.839Z,100897.67
2018-06-08T19:14:06.686Z,100894.95
2018-06-08T19:16:35.198Z,100902.60
2018-06-08T19:19:04.243Z,100906.73
2018-06-08T19:21:32.857Z,100906.14
2018-06-08T19:24:01.454Z,100901.31
2018-06-08T19:26:30.029Z,100909.66
2018-06-08T19:28:59.167Z,100906.36
2018-06-08T19:31:27.804Z,100908.34
2018-06-08T19:33:56.495Z,100907.17
2018-06-08T19:36:25.057Z,100908.05
2018-06-08T19:38:53.763Z,100914.30
2018-06-08T19:41:22.457Z,100919.86
2018-06-08T19:43:51.131Z,100921.72
2018-06-08T19:46:19.623Z,100926.91
2018-06-08T19:48:48.254Z,100927.22
2018-06-08T19:51:16.786Z,100924.34
2018-06-08T19:53:46.024Z,100917.30
2018-06-08T19:56:14.615Z,100922.14
2018-06-08T19:58:43.241Z,100918.55
2018-06-08T20:01:12.746Z,100911.53
2018-06-08T20:03:41.238Z,100916.02
2018-06-08T20:06:09.947Z,100917.83
2018-06-08T20:08:39.230Z,100915.30
2018-06-08T20:11:07.844Z,100916.41
2018-06-08T20:13:36.399Z,100910.81
2018-06-08T20:16:05.060Z,100914.26
2018-06-08T20:18:33.746Z,100913.33
2018-06-08T20:21:02.267Z,100916.00
2018-06-08T20:23:31.567Z,100924.28
2018-06-08T20:26:00.332Z,100928.31
2018-06-08T20:28:29.055Z,100927.34
2018-06-08T20:30:57.606Z,100932.16
2018-06-08T20:33:26.163Z,100932.09
2018-06-08T20:35:54.748Z,100934.01
2018-06-08T20:38:23.334Z,100928.94
2018-06-08T20:40:51.930Z,100927.06
2018-06-08T20:43:20.539Z,100934.16
2018-06-08T20:45:49.284Z,100930.56
2018-06-08T20:48:17.869Z,100928.66
2018-06-08T20:50:46.558Z,100932.10
2018-06-08T20:53:15.243Z,100930.19
2018-06-08T20:55:44.031Z,100934.96
2018-06-08T20:58:22.522Z,100935.11
2018-06-08T21:00:51.099Z,100942.30
2018-06-08T21:03:19.918Z,100935.97
2018-06-08T21:05:48.538Z,100940.98
2018-06-08T21:08:17.181Z,100941.13
2018-06-08T21:10:46.398Z,100937.85
2018-06-08T21:13:15.003Z,100934.92
2018-06-08T21:15:43.741Z,100944.42
2018-06-08T21:18:12.378Z,100942.47
2018-06-08T21:20:40.920Z,100936.04
2018-06-08T21:23:09.886Z,100932.63
2018-06-08T21:25:38.414Z,100937.72
2018-06-08T21:28:06.906Z,100942.20
2018-06-08T21:30:35.489Z,100939.00
2018-06-08T21:33:04.135Z,100940.45
2018-06-08T21:35:33.017Z,100944.58
2018-06-08T21:38:02.119Z,100948.58
2018-06-08T21:40:30.702Z,100952.55
2018-06-08T21:42:59.739Z,100946.34
2018-06-08T21:45:28.281Z,100945.86
2018-06-08T21:47:57.578Z,100939.65
2018-06-08T21:50:26.267Z,100948.12
2018-06-08T21:52:54.896Z,100952.95
2018-06-08T21:55:23.423Z,100949.05
2018-06-08T21:57:51.926Z,100947.06
2018-06-08T22:00:20.460Z,100952.63
2018-06-08T22:02:49.120Z,100955.63
2018-06-08T22:05:18.323Z,100950.64
2018-06-08T22:07:47.580Z,100960.91
2018-06-08T22:10:16.205Z,100958.57
2018-06-08T22:12:44.783Z,100953.16
2018-06-08T22:15:13.362Z,100961.02
2018-06-08T22:17:42.007Z,100959.16
2018-06-08T22:20:10.691Z,100962.16
2018-06-08T22:22:39.377Z,100954.61
2018-06-08T22:25:08.065Z,100969.24
2018-06-08T22:27:37.350Z,100971.38
2018-06-08T22:30:06.046Z,100973.50
2018-06-08T22:32:34.576Z,100973.94
2018-06-08T22:35:03.224Z,100967.13
2018-06-08T22:37:31.838Z,100970.02
2018-06-08T22:40:00.334Z,100973.88
2018-06-08T22:42:28.888Z,100975.05
2018-06-08T22:44:57.473Z,100974.52
2018-06-08T22:47:26.074Z,100970.38
2018-06-08T22:49:55.323Z,100967.92
2018-06-08T22:52:24.482Z,100970.05
2018-06-08T22:54:53.002Z,100976.77
2018-06-08T22:57:21.583Z,100980.11
2018-06-08T22:59:50.114Z,100981.88
2018-06-08T23:02:18.749Z,100978.30
2018-06-08T23:04:47.333Z,100978.58
2018-06-08T23:07:15.916Z,100981.09
2018-06-08T23:09:44.461Z,100983.20
2018-06-08T23:12:13.033Z,100982.68
2018-06-08T23:14:41.719Z,100989.14
2018-06-08T23:17:10.263Z,100989.35
2018-06-08T23:19:38.932Z,100986.89
2018-06-08T23:22:07.562Z,100984.55
2018-06-08T23:24:36.200Z,100987.16
2018-06-08T23:27:04.750Z,100987.72
2018-06-08T23:29:33.366Z,100985.27
2018-06-08T23:32:01.969Z,100984.53
2018-06-08T23:34:30.633Z,100986.44
2018-06-08T23:36:59.323Z,100983.05
2018-06-08T23:39:27.930Z,100981.52
2018-06-08T23:41:56.506Z,100979.92
2018-06-08T23:44:25.150Z,100979.27
2018-06-08T23:46:54.419Z,100985.29
2018-06-08T23:49:22.966Z,100975.88
2018-06-08T23:51:51.666Z,100979.61
2018-06-08T23:54:20.325Z,100978.38
2018-06-08T23:56:48.910Z,100987.52
2018-06-08T23:59:18.206Z,100982.77
